createdAt,value
2018-03-03T00:01:31.304Z,82.40
2018-03-03T00:03:58.916Z,82.40
2018-03-03T00:06:27.294Z,82.00
2018-03-03T00:08:55.635Z,82.20
2018-03-03T00:11:23.253Z,82.20
2018-03-03T00:13:50.847Z,82.20
2018-03-03T00:16:18.456Z,82.40
2018-03-03T00:18:46.811Z,82.50
2018-03-03T00:21:14.431Z,82.40
2018-03-03T00:23:42.019Z,82.30
2018-03-03T00:26:09.644Z,82.20
2018-03-03T00:28:37.230Z,82.10
2018-03-03T00:31:04.857Z,82.10
2018-03-03T00:33:32.468Z,82.20
2018-03-03T00:36:00.087Z,82.30
2018-03-03T00:38:27.681Z,82.30
2018-03-03T00:40:55.302Z,82.30
2018-03-03T00:43:23.692Z,82.30
2018-03-03T00:45:51.286Z,82.30
2018-03-03T00:48:18.916Z,82.10
2018-03-03T00:50:46.573Z,82.30
2018-03-03T00:53:14.176Z,82.20
2018-03-03T00:55:41.764Z,82.10
2018-03-03T00:58:10.156Z,81.80
2018-03-03T01:00:38.524Z,81.90
2018-03-03T01:03:06.137Z,81.80
2018-03-03T01:05:33.761Z,81.80
2018-03-03T01:08:02.116Z,82.30
2018-03-03T01:10:29.693Z,82.20
2018-03-03T01:12:58.090Z,82.20
2018-03-03T01:15:25.716Z,82.20
2018-03-03T01:17:53.333Z,81.90
2018-03-03T01:20:20.915Z,82.00
2018-03-03T01:22:48.559Z,82.90
2018-03-03T01:25:16.167Z,83.50
2018-03-03T01:27:43.742Z,82.70
2018-03-03T01:30:12.123Z,82.30
2018-03-03T01:32:40.487Z,82.30
2018-03-03T01:35:08.104Z,82.30
2018-03-03T01:37:35.685Z,82.00
2018-03-03T01:40:03.327Z,82.00
2018-03-03T01:42:30.908Z,81.90
2018-03-03T01:44:58.531Z,82.00
2018-03-03T01:47:26.107Z,81.80
2018-03-03T01:49:53.694Z,82.10
2018-03-03T01:52:21.324Z,82.40
2018-03-03T01:54:48.942Z,82.70
2018-03-03T01:57:16.532Z,82.20
2018-03-03T01:59:44.138Z,82.10
2018-03-03T02:02:11.768Z,82.20
2018-03-03T02:04:39.358Z,82.10
2018-03-03T02:07:07.002Z,81.70
2018-03-03T02:09:34.622Z,81.90
2018-03-03T02:12:10.282Z,81.90
2018-03-03T02:14:43.584Z,81.80
2018-03-03T02:17:12.807Z,81.80
2018-03-03T02:19:43.306Z,81.70
2018-03-03T02:22:13.605Z,81.40
2018-03-03T02:24:42.661Z,81.40
2018-03-03T02:27:11.940Z,81.60
2018-03-03T02:29:43.437Z,81.60
2018-03-03T02:32:14.971Z,81.50
2018-03-03T02:34:45.787Z,82.20
2018-03-03T02:37:15.537Z,82.40
2018-03-03T02:39:45.872Z,82.40
2018-03-03T02:42:16.262Z,82.30
2018-03-03T02:44:49.456Z,82.00
2018-03-03T02:47:23.785Z,82.00
2018-03-03T02:49:53.709Z,81.80
2018-03-03T02:52:24.633Z,81.60
2018-03-03T02:54:54.540Z,81.60
2018-03-03T02:57:24.225Z,81.80
2018-03-03T02:59:54.879Z,81.80
2018-03-03T03:02:27.225Z,81.80
2018-03-03T03:04:57.746Z,81.60
2018-03-03T03:07:28.376Z,81.60
2018-03-03T03:09:58.969Z,81.60
2018-03-03T03:12:28.603Z,81.60
2018-03-03T03:14:58.237Z,81.70
2018-03-03T03:17:29.000Z,82.00
2018-03-03T03:19:59.502Z,82.00
2018-03-03T03:22:30.155Z,81.80
2018-03-03T03:24:59.994Z,81.70
2018-03-03T03:27:30.650Z,81.60
2018-03-03T03:30:00.440Z,81.70
2018-03-03T03:32:30.102Z,81.70
2018-03-03T03:35:01.722Z,81.50
2018-03-03T03:37:31.452Z,81.50
2018-03-03T03:40:01.021Z,81.90
2018-03-03T03:42:30.897Z,82.20
2018-03-03T03:45:02.061Z,82.60
2018-03-03T03:47:31.689Z,82.60
2018-03-03T03:50:05.734Z,82.60
2018-03-03T03:52:36.415Z,82.60
2018-03-03T03:55:06.979Z,82.60
2018-03-03T03:57:36.539Z,82.20
2018-03-03T04:00:04.262Z,82.00
2018-03-03T04:02:31.804Z,81.90
2018-03-03T04:04:59.385Z,81.60
2018-03-03T04:07:27.010Z,81.80
2018-03-03T04:09:54.604Z,82.50
2018-03-03T04:12:22.254Z,82.80
2018-03-03T04:14:49.834Z,82.70
2018-03-03T04:17:17.410Z,82.60
2018-03-03T04:19:45.819Z,83.50
2018-03-03T04:22:13.413Z,83.50
2018-03-03T04:24:40.990Z,84.10
2018-03-03T04:27:08.615Z,84.20
2018-03-03T04:29:36.244Z,84.00
2018-03-03T04:32:04.633Z,84.00
2018-03-03T04:34:32.985Z,84.20
2018-03-03T04:37:00.618Z,84.20
2018-03-03T04:39:28.207Z,84.30
2018-03-03T04:41:55.838Z,84.70
2018-03-03T04:44:23.434Z,84.70
2018-03-03T04:46:51.066Z,84.70
2018-03-03T04:49:18.643Z,84.90
2018-03-03T04:51:46.282Z,85.00
2018-03-03T04:54:13.897Z,84.90
2018-03-03T04:56:42.274Z,84.70
2018-03-03T04:59:16.427Z,84.40
2018-03-03T05:01:47.276Z,84.30
2018-03-03T05:04:14.923Z,84.30
2018-03-03T05:06:57.422Z,84.40
2018-03-03T05:09:25.014Z,84.40
2018-03-03T05:11:52.603Z,84.60
2018-03-03T05:14:21.128Z,84.50
2018-03-03T05:16:54.429Z,84.10
2018-03-03T05:19:36.963Z,84.30
2018-03-03T05:22:10.084Z,84.50
2018-03-03T05:24:43.401Z,84.60
2018-03-03T05:27:29.454Z,84.50
2018-03-03T05:30:02.608Z,84.50
2018-03-03T05:32:35.856Z,84.30
2018-03-03T05:35:04.214Z,84.20
2018-03-03T05:37:37.574Z,84.40
2018-03-03T05:40:10.716Z,84.70
2018-03-03T05:42:42.122Z,85.20
2018-03-03T05:45:30.645Z,85.50
2018-03-03T05:48:04.550Z,84.40
2018-03-03T05:50:38.485Z,84.40
2018-03-03T05:53:21.917Z,84.30
2018-03-03T05:55:55.172Z,84.50
2018-03-03T05:58:28.459Z,84.40
2018-03-03T06:01:01.695Z,84.60
2018-03-03T06:03:47.043Z,84.50
2018-03-03T06:06:29.514Z,85.00
2018-03-03T06:09:07.083Z,85.70
2018-03-03T06:11:34.674Z,85.80
2018-03-03T06:14:02.330Z,85.80
2018-03-03T06:16:29.908Z,85.40
2018-03-03T06:18:57.527Z,84.90
2018-03-03T06:21:25.104Z,84.60
2018-03-03T06:23:52.713Z,85.00
2018-03-03T06:26:21.084Z,85.30
2018-03-03T06:28:48.700Z,85.40
2018-03-03T06:31:16.283Z,84.90
2018-03-03T06:33:43.902Z,84.90
2018-03-03T06:36:11.498Z,84.50
2018-03-03T06:38:39.108Z,85.20
2018-03-03T06:41:06.687Z,84.50
2018-03-03T06:43:34.311Z,84.60
2018-03-03T06:46:01.931Z,84.50
2018-03-03T06:48:29.526Z,84.40
2018-03-03T06:50:57.162Z,84.40
2018-03-03T06:53:24.772Z,84.70
2018-03-03T06:55:53.174Z,83.90
2018-03-03T06:58:20.789Z,83.90
2018-03-03T07:00:48.392Z,83.70
2018-03-03T07:03:16.777Z,83.70
2018-03-03T07:05:44.362Z,83.60
2018-03-03T07:08:12.005Z,84.00
2018-03-03T07:10:39.640Z,83.90
2018-03-03T07:13:08.006Z,83.30
2018-03-03T07:15:35.602Z,83.30
2018-03-03T07:18:03.284Z,83.30
2018-03-03T07:20:30.882Z,83.20
2018-03-03T07:22:58.498Z,83.20
2018-03-03T07:25:26.077Z,83.10
2018-03-03T07:27:53.719Z,83.10
2018-03-03T07:30:21.322Z,82.70
2018-03-03T07:32:48.966Z,82.80
2018-03-03T07:35:16.751Z,82.30
2018-03-03T07:37:44.380Z,82.00
2018-03-03T07:40:11.963Z,81.60
2018-03-03T07:42:39.567Z,81.30
2018-03-03T07:45:07.183Z,81.70
2018-03-03T07:47:34.787Z,81.70
2018-03-03T07:50:04.675Z,80.80
2018-03-03T07:52:32.324Z,80.80
2018-03-03T07:54:59.904Z,81.00
2018-03-03T07:57:27.528Z,80.50
2018-03-03T07:59:55.140Z,80.90
2018-03-03T08:02:22.711Z,80.50
2018-03-03T08:04:51.106Z,78.40
2018-03-03T08:07:18.700Z,78.40
2018-03-03T08:09:46.320Z,77.40
2018-03-03T08:12:14.669Z,78.40
2018-03-03T08:14:42.283Z,78.40
2018-03-03T08:17:09.865Z,77.00
2018-03-03T08:19:37.494Z,76.60
2018-03-03T08:22:05.079Z,76.60
2018-03-03T08:24:32.720Z,75.90
2018-03-03T08:27:00.342Z,76.10
2018-03-03T08:29:27.924Z,76.30
2018-03-03T08:31:55.564Z,76.10
2018-03-03T08:34:23.210Z,76.00
2018-03-03T08:36:50.787Z,76.70
2018-03-03T08:39:18.416Z,76.80
2018-03-03T08:41:46.051Z,76.60
2018-03-03T08:44:13.671Z,75.30
2018-03-03T08:46:41.254Z,74.80
2018-03-03T08:49:09.646Z,74.30
2018-03-03T08:51:37.288Z,74.30
2018-03-03T08:54:04.901Z,74.00
2018-03-03T08:56:32.526Z,71.40
2018-03-03T08:59:00.887Z,69.80
2018-03-03T09:01:28.485Z,69.70
2018-03-03T09:03:56.129Z,68.70
2018-03-03T09:06:24.511Z,66.50
2018-03-03T09:08:52.086Z,66.50
2018-03-03T09:11:19.725Z,65.10
2018-03-03T09:13:48.079Z,65.20
2018-03-03T09:16:15.683Z,65.20
2018-03-03T09:18:43.304Z,65.10
2018-03-03T09:21:10.891Z,65.50
2018-03-03T09:23:39.296Z,60.40
2018-03-03T09:26:06.915Z,60.40
2018-03-03T09:28:34.590Z,60.70
2018-03-03T09:31:02.239Z,61.70
2018-03-03T09:33:29.842Z,61.40
2018-03-03T09:35:57.455Z,60.70
2018-03-03T09:38:25.073Z,60.10
2018-03-03T09:40:52.691Z,56.70
2018-03-03T09:43:21.079Z,54.90
2018-03-03T09:45:48.760Z,54.90
2018-03-03T09:48:16.383Z,55.60
2018-03-03T09:50:44.018Z,55.40
2018-03-03T09:53:11.636Z,51.20
2018-03-03T09:55:39.278Z,48.10
2018-03-03T09:58:07.703Z,46.00
2018-03-03T10:00:35.314Z,45.90
2018-03-03T10:03:02.944Z,43.40
2018-03-03T10:05:30.602Z,44.40
2018-03-03T10:07:58.190Z,45.10
2018-03-03T10:10:25.826Z,46.30
2018-03-03T10:12:53.479Z,47.80
2018-03-03T10:15:21.129Z,48.00
2018-03-03T10:17:48.731Z,49.00
2018-03-03T10:20:16.363Z,49.30
2018-03-03T10:22:43.958Z,50.50
2018-03-03T10:25:11.600Z,51.20
2018-03-03T10:27:39.211Z,49.80
2018-03-03T10:30:07.638Z,49.10
2018-03-03T10:32:36.030Z,48.40
2018-03-03T10:35:03.629Z,48.40
2018-03-03T10:37:32.022Z,45.20
2018-03-03T10:40:00.421Z,44.40
2018-03-03T10:42:28.036Z,44.10
2018-03-03T10:44:55.672Z,45.00
2018-03-03T10:47:23.296Z,45.40
2018-03-03T10:49:50.942Z,45.00
2018-03-03T10:52:19.288Z,45.00
2018-03-03T10:54:46.922Z,45.00
2018-03-03T10:57:14.578Z,43.70
2018-03-03T10:59:42.358Z,42.40
2018-03-03T11:02:10.032Z,40.90
2018-03-03T11:04:37.731Z,39.50
2018-03-03T11:07:06.108Z,38.30
2018-03-03T11:09:34.540Z,39.30
2018-03-03T11:12:02.177Z,39.30
2018-03-03T11:14:29.841Z,39.90
2018-03-03T11:16:57.543Z,41.80
2018-03-03T11:19:25.151Z,42.50
2018-03-03T11:21:52.841Z,44.50
2018-03-03T11:24:20.450Z,45.00
2018-03-03T11:26:48.034Z,44.90
2018-03-03T11:29:16.435Z,44.50
2018-03-03T11:31:44.089Z,44.50
2018-03-03T11:34:11.761Z,45.50
2018-03-03T11:36:39.373Z,44.70
2018-03-03T11:39:07.019Z,46.00
2018-03-03T11:41:34.692Z,46.20
2018-03-03T11:44:02.343Z,45.10
2018-03-03T11:46:29.972Z,44.80
2018-03-03T11:48:57.611Z,44.70
2018-03-03T11:51:25.217Z,44.70
2018-03-03T11:53:52.860Z,42.90
2018-03-03T11:56:20.479Z,44.00
2018-03-03T11:58:48.863Z,41.70
2018-03-03T12:01:17.279Z,39.50
2018-03-03T12:03:44.864Z,39.50
2018-03-03T12:06:12.503Z,37.50
2018-03-03T12:08:40.305Z,35.40
2018-03-03T12:11:07.933Z,32.30
2018-03-03T12:13:35.547Z,29.30
2018-03-03T12:16:03.200Z,29.40
2018-03-03T12:18:30.887Z,28.10
2018-03-03T12:20:59.281Z,27.50
2018-03-03T12:23:26.973Z,27.50
2018-03-03T12:25:55.329Z,27.00
2018-03-03T12:28:23.024Z,27.00
2018-03-03T12:30:50.828Z,26.80
2018-03-03T12:33:18.466Z,26.70
2018-03-03T12:35:46.125Z,25.90
2018-03-03T12:38:13.767Z,25.80
2018-03-03T12:40:41.425Z,25.50
2018-03-03T12:43:09.130Z,25.10
2018-03-03T12:45:36.808Z,25.10
2018-03-03T12:48:05.232Z,24.90
2018-03-03T12:50:32.822Z,24.80
2018-03-03T12:53:00.447Z,25.40
2018-03-03T12:55:28.060Z,25.80
2018-03-03T12:57:56.966Z,25.20
2018-03-03T13:00:24.561Z,25.70
2018-03-03T13:02:52.364Z,25.50
2018-03-03T13:05:20.056Z,25.30
2018-03-03T13:07:47.768Z,25.20
2018-03-03T13:10:15.459Z,26.00
2018-03-03T13:12:43.079Z,26.80
2018-03-03T13:15:10.730Z,27.80
2018-03-03T13:17:38.382Z,28.50
2018-03-03T13:20:06.831Z,29.40
2018-03-03T13:22:34.478Z,29.40
2018-03-03T13:25:02.088Z,29.50
2018-03-03T13:27:29.765Z,29.10
2018-03-03T13:29:57.382Z,29.90
2018-03-03T13:32:25.021Z,30.60
2018-03-03T13:34:52.619Z,31.90
2018-03-03T13:37:21.041Z,34.80
2018-03-03T13:39:48.670Z,34.70
2018-03-03T13:42:17.098Z,35.80
2018-03-03T13:44:44.719Z,35.80
2018-03-03T13:47:13.127Z,36.80
2018-03-03T13:49:40.750Z,36.60
2018-03-03T13:52:09.273Z,37.00
2018-03-03T13:54:36.906Z,36.90
2018-03-03T13:57:05.286Z,37.50
2018-03-03T13:59:32.930Z,37.50
2018-03-03T14:02:00.612Z,37.00
2018-03-03T14:04:28.396Z,36.60
2018-03-03T14:06:56.069Z,36.70
2018-03-03T14:09:23.727Z,37.10
2018-03-03T14:11:51.366Z,36.90
2018-03-03T14:14:19.783Z,38.00
2018-03-03T14:16:47.386Z,38.60
2018-03-03T14:19:15.043Z,38.20
2018-03-03T14:21:42.676Z,39.10
2018-03-03T14:24:10.333Z,38.70
2018-03-03T14:26:37.941Z,38.30
2018-03-03T14:29:06.318Z,38.60
2018-03-03T14:31:33.974Z,38.50
2018-03-03T14:34:01.581Z,38.90
2018-03-03T14:36:29.170Z,38.80
2018-03-03T14:38:56.803Z,38.80
2018-03-03T14:41:25.189Z,39.90
2018-03-03T14:43:53.358Z,39.90
2018-03-03T14:46:20.944Z,41.20
2018-03-03T14:48:48.520Z,41.00
2018-03-03T14:51:16.138Z,40.90
2018-03-03T14:53:43.757Z,41.50
2018-03-03T14:56:11.391Z,42.30
2018-03-03T14:58:39.038Z,42.60
2018-03-03T15:01:06.607Z,43.10
2018-03-03T15:03:34.195Z,43.60
2018-03-03T15:06:01.825Z,43.80
2018-03-03T15:08:29.451Z,43.70
2018-03-03T15:10:57.809Z,43.80
2018-03-03T15:13:25.493Z,43.80
2018-03-03T15:15:53.948Z,44.90
2018-03-03T15:18:21.506Z,44.80
2018-03-03T15:20:49.146Z,45.40
2018-03-03T15:23:16.758Z,45.40
2018-03-03T15:25:44.388Z,46.10
2018-03-03T15:28:11.996Z,47.00
2018-03-03T15:30:39.639Z,48.90
2018-03-03T15:33:07.247Z,50.40
2018-03-03T15:35:34.846Z,50.20
2018-03-03T15:38:03.272Z,51.50
2018-03-03T15:40:30.858Z,51.50
2018-03-03T15:42:58.551Z,51.60
2018-03-03T15:45:26.142Z,51.60
2018-03-03T15:47:53.769Z,53.60
2018-03-03T15:50:21.346Z,54.60
2018-03-03T15:52:49.747Z,54.30
2018-03-03T15:55:17.371Z,54.30
2018-03-03T15:57:44.994Z,54.60
2018-03-03T16:00:12.628Z,54.40
2018-03-03T16:02:40.222Z,55.40
2018-03-03T16:05:07.863Z,55.60
2018-03-03T16:07:35.446Z,55.80
2018-03-03T16:10:03.057Z,56.70
2018-03-03T16:12:31.410Z,56.60
2018-03-03T16:14:59.050Z,56.60
2018-03-03T16:17:26.647Z,57.00
2018-03-03T16:19:55.044Z,57.40
2018-03-03T16:22:23.395Z,57.50
2018-03-03T16:24:51.039Z,57.50
2018-03-03T16:27:18.667Z,58.70
2018-03-03T16:29:46.273Z,58.80
2018-03-03T16:32:13.886Z,58.90
2018-03-03T16:34:41.468Z,59.10
2018-03-03T16:37:09.076Z,59.20
2018-03-03T16:39:36.710Z,60.40
2018-03-03T16:42:04.318Z,60.30
2018-03-03T16:44:32.663Z,60.40
2018-03-03T16:47:00.282Z,60.40
2018-03-03T16:49:27.913Z,60.40
2018-03-03T16:51:56.315Z,60.80
2018-03-03T16:54:23.901Z,60.80
2018-03-03T16:56:51.527Z,60.60
2018-03-03T16:59:19.859Z,60.90
2018-03-03T17:01:47.508Z,60.80
2018-03-03T17:04:15.097Z,61.20
2018-03-03T17:06:42.711Z,61.30
2018-03-03T17:09:11.101Z,61.30
2018-03-03T17:11:38.690Z,61.30
2018-03-03T17:14:06.487Z,61.80
2018-03-03T17:16:34.119Z,61.60
2018-03-03T17:19:01.744Z,62.10
2018-03-03T17:21:29.318Z,61.90
2018-03-03T17:23:56.943Z,61.80
2018-03-03T17:26:25.293Z,62.00
2018-03-03T17:28:52.919Z,62.00
2018-03-03T17:31:20.571Z,62.20
2018-03-03T17:33:48.190Z,62.30
2018-03-03T17:36:16.608Z,62.10
2018-03-03T17:38:44.230Z,62.10
2018-03-03T17:41:11.856Z,62.30
2018-03-03T17:43:39.430Z,63.40
2018-03-03T17:46:07.020Z,64.10
2018-03-03T17:48:34.644Z,63.90
2018-03-03T17:51:02.304Z,63.50
2018-03-03T17:53:29.893Z,64.00
2018-03-03T17:55:57.471Z,63.90
2018-03-03T17:58:25.869Z,64.20
2018-03-03T18:00:53.482Z,64.20
2018-03-03T18:03:21.122Z,64.30
2018-03-03T18:05:48.739Z,64.00
2018-03-03T18:08:17.117Z,63.10
2018-03-03T18:10:45.507Z,63.50
2018-03-03T18:13:17.926Z,63.60
2018-03-03T18:15:45.520Z,63.40
2018-03-03T18:18:13.962Z,63.70
2018-03-03T18:20:41.561Z,63.70
2018-03-03T18:23:09.959Z,64.70
2018-03-03T18:25:38.306Z,64.70
2018-03-03T18:28:05.951Z,64.70
2018-03-03T18:30:33.546Z,64.30
2018-03-03T18:33:01.934Z,65.10
2018-03-03T18:35:30.277Z,65.30
2018-03-03T18:37:57.907Z,65.40
2018-03-03T18:40:25.505Z,66.00
2018-03-03T18:42:53.090Z,66.10
2018-03-03T18:45:20.723Z,66.60
2018-03-03T18:47:48.353Z,66.90
2018-03-03T18:50:15.980Z,67.10
2018-03-03T18:52:44.391Z,67.40
2018-03-03T18:55:12.006Z,67.40
2018-03-03T18:57:39.624Z,68.60
2018-03-03T19:00:07.216Z,69.00
2018-03-03T19:02:34.860Z,68.40
2018-03-03T19:05:02.448Z,69.30
2018-03-03T19:07:30.038Z,68.80
2018-03-03T19:09:58.428Z,68.80
2018-03-03T19:12:26.020Z,68.80
2018-03-03T19:14:53.638Z,68.70
2018-03-03T19:17:21.211Z,68.90
2018-03-03T19:19:48.848Z,69.80
2018-03-03T19:22:16.464Z,70.50
2018-03-03T19:24:44.100Z,70.50
2018-03-03T19:27:11.683Z,71.40
2018-03-03T19:29:39.300Z,71.90
2018-03-03T19:32:07.690Z,73.00
2018-03-03T19:34:35.323Z,73.00
2018-03-03T19:37:02.900Z,73.60
2018-03-03T19:39:30.541Z,73.20
2018-03-03T19:41:58.960Z,73.40
2018-03-03T19:44:26.559Z,73.30
2018-03-03T19:46:54.128Z,73.70
2018-03-03T19:49:21.749Z,74.30
2018-03-03T19:51:49.334Z,74.20
2018-03-03T19:54:16.946Z,73.90
2018-03-03T19:56:45.343Z,74.10
2018-03-03T19:59:12.996Z,74.00
2018-03-03T20:01:40.599Z,73.60
2018-03-03T20:04:08.208Z,73.60
2018-03-03T20:06:35.824Z,74.10
2018-03-03T20:09:03.448Z,74.20
2018-03-03T20:11:31.059Z,73.70
2018-03-03T20:13:58.676Z,73.80
2018-03-03T20:16:26.254Z,73.50
2018-03-03T20:18:53.951Z,73.80
2018-03-03T20:21:21.528Z,73.90
2018-03-03T20:23:49.154Z,74.10
2018-03-03T20:26:16.723Z,74.30
2018-03-03T20:28:44.343Z,73.90
2018-03-03T20:31:11.968Z,74.50
2018-03-03T20:33:39.579Z,73.90
2018-03-03T20:36:07.168Z,74.50
2018-03-03T20:38:34.797Z,74.90
2018-03-03T20:41:02.368Z,74.70
2018-03-03T20:43:30.010Z,74.40
2018-03-03T20:45:58.370Z,75.00
2018-03-03T20:48:26.787Z,75.30
2018-03-03T20:50:55.170Z,75.30
2018-03-03T20:53:22.776Z,75.20
2018-03-03T20:55:50.422Z,75.10
2018-03-03T20:58:18.007Z,75.10
2018-03-03T21:00:46.423Z,76.70
2018-03-03T21:03:16.971Z,76.70
2018-03-03T21:05:44.612Z,76.90
2018-03-03T21:08:12.241Z,77.10
2018-03-03T21:10:39.826Z,77.50
2018-03-03T21:13:08.183Z,76.80
2018-03-03T21:15:35.794Z,76.80
2018-03-03T21:18:03.389Z,77.50
2018-03-03T21:20:31.030Z,76.50
2018-03-03T21:22:58.612Z,76.00
2018-03-03T21:25:26.196Z,76.40
2018-03-03T21:27:53.834Z,77.70
2018-03-03T21:30:21.451Z,78.20
2018-03-03T21:32:49.078Z,79.00
2018-03-03T21:35:17.524Z,79.40
2018-03-03T21:37:45.130Z,79.40
2018-03-03T21:40:13.507Z,80.20
2018-03-03T21:42:41.901Z,80.40
2018-03-03T21:45:09.486Z,80.40
2018-03-03T21:47:37.093Z,80.60
2018-03-03T21:50:04.729Z,80.70
2018-03-03T21:52:32.360Z,80.60
2018-03-03T21:54:59.980Z,81.10
2018-03-03T21:57:27.619Z,81.00
2018-03-03T21:59:55.204Z,80.40
2018-03-03T22:02:22.782Z,80.60
2018-03-03T22:04:51.257Z,80.70
2018-03-03T22:07:18.848Z,80.70
2018-03-03T22:09:46.440Z,80.90
2018-03-03T22:12:14.059Z,80.70
2018-03-03T22:14:41.642Z,80.70
2018-03-03T22:17:09.239Z,80.80
2018-03-03T22:19:36.850Z,81.30
2018-03-03T22:22:04.811Z,80.70
2018-03-03T22:24:32.454Z,80.10
2018-03-03T22:27:00.830Z,80.50
2018-03-03T22:29:28.485Z,80.50
2018-03-03T22:31:56.059Z,80.90
2018-03-03T22:34:24.420Z,81.30
2018-03-03T22:36:52.048Z,80.90
2018-03-03T22:39:24.526Z,80.40
2018-03-03T22:41:52.106Z,80.70
2018-03-03T22:44:19.709Z,80.90
2018-03-03T22:46:47.285Z,81.10
2018-03-03T22:49:14.918Z,81.40
2018-03-03T22:51:45.959Z,81.40
2018-03-03T22:54:14.363Z,81.60
2018-03-03T22:56:41.951Z,81.60
2018-03-03T22:59:09.566Z,82.00
2018-03-03T23:01:37.921Z,82.20
2018-03-03T23:04:05.543Z,82.10
2018-03-03T23:06:33.174Z,82.70
2018-03-03T23:09:01.522Z,84.20
2018-03-03T23:11:29.143Z,84.10
2018-03-03T23:13:56.781Z,84.60
2018-03-03T23:16:25.133Z,84.40
2018-03-03T23:18:52.756Z,84.30
2018-03-03T23:21:20.357Z,84.70
2018-03-03T23:23:47.971Z,85.20
2018-03-03T23:26:15.575Z,85.70
2018-03-03T23:28:43.190Z,85.90
2018-03-03T23:31:11.532Z,86.10
2018-03-03T23:33:39.910Z,85.60
2018-03-03T23:36:07.492Z,85.50
2018-03-03T23:38:35.866Z,85.80
2018-03-03T23:41:04.280Z,85.90
2018-03-03T23:43:31.902Z,85.90
2018-03-03T23:46:00.247Z,85.60
2018-03-03T23:48:27.827Z,86.20
2018-03-03T23:50:56.234Z,85.80
2018-03-03T23:53:23.863Z,85.40
2018-03-03T23:55:51.482Z,85.00
2018-03-03T23:58:19.058Z,84.90
